sensor_id;sensor_type;location;lat;lon;timestamp;P1;durP1;ratioP1;P2;durP2;ratioP2
73684;SDS011;61985;51.070;14.064;2023-05-13T00:02:12;8.63;;;4.70;;
73684;SDS011;61985;51.070;14.064;2023-05-13T00:04:37;8.80;;;4.55;;
73684;SDS011;61985;51.070;14.064;2023-05-13T00:07:03;10.40;;;4.82;;
73684;SDS011;61985;51.070;14.064;2023-05-13T00:09:29;7.22;;;4.50;;
73684;SDS011;61985;51.070;14.064;2023-05-13T00:11:54;7.95;;;4.65;;
73684;SDS011;61985;51.070;14.064;2023-05-13T00:14:20;7.82;;;4.50;;
73684;SDS011;61985;51.070;14.064;2023-05-13T00:16:45;7.72;;;5.05;;
73684;SDS011;61985;51.070;14.064;2023-05-13T00:19:11;7.57;;;4.68;;
73684;SDS011;61985;51.070;14.064;2023-05-13T00:21:37;6.10;;;4.05;;
73684;SDS011;61985;51.070;14.064;2023-05-13T00:24:02;12.40;;;4.95;;
73684;SDS011;61985;51.070;14.064;2023-05-13T00:26:28;9.20;;;4.60;;
73684;SDS011;61985;51.070;14.064;2023-05-13T09:29:31;5.50;;;3.33;;
73684;SDS011;61985;51.070;14.064;2023-05-13T09:31:58;8.45;;;4.03;;
73684;SDS011;61985;51.070;14.064;2023-05-13T09:36:55;5.80;;;3.83;;
73684;SDS011;61985;51.070;14.064;2023-05-13T09:39:21;5.82;;;3.40;;
73684;SDS011;61985;51.070;14.064;2023-05-13T09:41:46;6.47;;;3.72;;
73684;SDS011;61985;51.070;14.064;2023-05-13T09:44:12;6.32;;;3.42;;
73684;SDS011;61985;51.070;14.064;2023-05-13T09:46:37;5.43;;;3.70;;
73684;SDS011;61985;51.070;14.064;2023-05-13T09:49:03;7.30;;;3.67;;
73684;SDS011;61985;51.070;14.064;2023-05-13T09:51:28;6.45;;;3.70;;
73684;SDS011;61985;51.070;14.064;2023-05-13T09:54:01;7.50;;;3.38;;
73684;SDS011;61985;51.070;14.064;2023-05-13T09:56:27;6.63;;;3.60;;
73684;SDS011;61985;51.070;14.064;2023-05-13T09:58:54;5.50;;;3.50;;
73684;SDS011;61985;51.070;14.064;2023-05-13T10:01:20;6.85;;;3.55;;
73684;SDS011;61985;51.070;14.064;2023-05-13T10:03:46;5.35;;;3.30;;
73684;SDS011;61985;51.070;14.064;2023-05-13T10:06:14;6.10;;;3.45;;
73684;SDS011;61985;51.070;14.064;2023-05-13T10:08:42;8.27;;;3.78;;
73684;SDS011;61985;51.070;14.064;2023-05-13T10:11:11;5.97;;;3.42;;
73684;SDS011;61985;51.070;14.064;2023-05-13T10:13:39;6.10;;;3.55;;
73684;SDS011;61985;51.070;14.064;2023-05-13T10:16:05;6.63;;;3.85;;
73684;SDS011;61985;51.070;14.064;2023-05-13T10:18:31;6.55;;;3.47;;
73684;SDS011;61985;51.070;14.064;2023-05-13T10:20:57;8.63;;;3.60;;
73684;SDS011;61985;51.070;14.064;2023-05-13T10:23:23;7.40;;;3.50;;
73684;SDS011;61985;51.070;14.064;2023-05-13T10:25:50;6.65;;;3.72;;
73684;SDS011;61985;51.070;14.064;2023-05-13T10:28:17;8.82;;;3.70;;
73684;SDS011;61985;51.070;14.064;2023-05-13T10:30:43;5.60;;;3.60;;
73684;SDS011;61985;51.070;14.064;2023-05-13T10:33:09;5.88;;;3.42;;
73684;SDS011;61985;51.070;14.064;2023-05-13T10:35:36;6.35;;;3.47;;
73684;SDS011;61985;51.070;14.064;2023-05-13T10:41:26;7.03;;;4.03;;
73684;SDS011;61985;51.070;14.064;2023-05-13T10:44:01;7.05;;;3.50;;
73684;SDS011;61985;51.070;14.064;2023-05-13T10:46:29;6.22;;;3.72;;
73684;SDS011;61985;51.070;14.064;2023-05-13T10:48:55;6.97;;;3.40;;
73684;SDS011;61985;51.070;14.064;2023-05-13T10:51:23;7.05;;;2.95;;
73684;SDS011;61985;51.070;14.064;2023-05-13T10:53:50;7.13;;;3.53;;
73684;SDS011;61985;51.070;14.064;2023-05-13T10:56:20;6.13;;;3.28;;
73684;SDS011;61985;51.070;14.064;2023-05-13T10:58:57;7.15;;;3.75;;
73684;SDS011;61985;51.070;14.064;2023-05-13T11:01:37;3.90;;;2.70;;
73684;SDS011;61985;51.070;14.064;2023-05-13T11:04:13;4.38;;;2.38;;
73684;SDS011;61985;51.070;14.064;2023-05-13T11:06:41;6.10;;;3.25;;
73684;SDS011;61985;51.070;14.064;2023-05-13T11:11:37;3.63;;;2.45;;
73684;SDS011;61985;51.070;14.064;2023-05-13T11:14:07;4.13;;;2.90;;
73684;SDS011;61985;51.070;14.064;2023-05-13T11:16:38;6.43;;;2.78;;
73684;SDS011;61985;51.070;14.064;2023-05-13T11:19:17;6.22;;;3.08;;
73684;SDS011;61985;51.070;14.064;2023-05-13T11:21:46;5.75;;;3.22;;
73684;SDS011;61985;51.070;14.064;2023-05-13T11:24:16;6.07;;;2.83;;
73684;SDS011;61985;51.070;14.064;2023-05-13T11:29:31;4.63;;;2.78;;
73684;SDS011;61985;51.070;14.064;2023-05-13T11:32:00;5.10;;;2.90;;
73684;SDS011;61985;51.070;14.064;2023-05-13T11:34:27;4.25;;;3.05;;
73684;SDS011;61985;51.070;14.064;2023-05-13T11:36:56;5.47;;;3.28;;
73684;SDS011;61985;51.070;14.064;2023-05-13T11:39:28;5.32;;;3.10;;
73684;SDS011;61985;51.070;14.064;2023-05-13T11:41:53;4.95;;;3.08;;
73684;SDS011;61985;51.070;14.064;2023-05-13T11:44:22;7.72;;;3.47;;
73684;SDS011;61985;51.070;14.064;2023-05-13T11:46:49;4.57;;;2.90;;
73684;SDS011;61985;51.070;14.064;2023-05-13T11:52:06;4.25;;;2.58;;
73684;SDS011;61985;51.070;14.064;2023-05-13T11:59:58;7.35;;;2.72;;
73684;SDS011;61985;51.070;14.064;2023-05-13T12:02:26;5.20;;;2.45;;
73684;SDS011;61985;51.070;14.064;2023-05-13T12:04:53;4.43;;;2.80;;
73684;SDS011;61985;51.070;14.064;2023-05-13T12:07:22;6.90;;;2.85;;
73684;SDS011;61985;51.070;14.064;2023-05-13T12:09:49;5.32;;;2.78;;
73684;SDS011;61985;51.070;14.064;2023-05-13T12:12:15;4.13;;;2.47;;
73684;SDS011;61985;51.070;14.064;2023-05-13T12:14:45;6.13;;;2.80;;
73684;SDS011;61985;51.070;14.064;2023-05-13T12:17:15;5.78;;;2.53;;
73684;SDS011;61985;51.070;14.064;2023-05-13T12:22:36;4.45;;;2.53;;
73684;SDS011;61985;51.070;14.064;2023-05-13T12:28:10;6.22;;;2.80;;
73684;SDS011;61985;51.070;14.064;2023-05-13T12:30:47;12.80;;;2.70;;
73684;SDS011;61985;51.070;14.064;2023-05-13T12:33:16;3.72;;;2.60;;
73684;SDS011;61985;51.070;14.064;2023-05-13T12:35:50;4.38;;;2.58;;
73684;SDS011;61985;51.070;14.064;2023-05-13T12:38:23;5.65;;;2.60;;
73684;SDS011;61985;51.070;14.064;2023-05-13T12:40:49;5.43;;;2.60;;
73684;SDS011;61985;51.070;14.064;2023-05-13T12:43:15;4.53;;;2.72;;
73684;SDS011;61985;51.070;14.064;2023-05-13T12:45:44;4.70;;;2.47;;
73684;SDS011;61985;51.070;14.064;2023-05-13T12:48:10;4.07;;;2.50;;
73684;SDS011;61985;51.070;14.064;2023-05-13T12:50:35;9.48;;;2.58;;
73684;SDS011;61985;51.070;14.064;2023-05-13T12:53:01;4.07;;;2.53;;
73684;SDS011;61985;51.070;14.064;2023-05-13T12:55:27;3.17;;;2.35;;
73684;SDS011;61985;51.070;14.064;2023-05-13T12:57:53;4.78;;;2.38;;
73684;SDS011;61985;51.070;14.064;2023-05-13T13:00:26;6.80;;;2.60;;
73684;SDS011;61985;51.070;14.064;2023-05-13T13:02:51;5.82;;;2.60;;
73684;SDS011;61985;51.070;14.064;2023-05-13T13:05:18;3.75;;;2.40;;
73684;SDS011;61985;51.070;14.064;2023-05-13T13:07:44;4.18;;;2.40;;
73684;SDS011;61985;51.070;14.064;2023-05-13T13:10:10;4.63;;;2.58;;
73684;SDS011;61985;51.070;14.064;2023-05-13T13:12:36;3.63;;;2.60;;
73684;SDS011;61985;51.070;14.064;2023-05-13T13:15:02;4.10;;;2.60;;
73684;SDS011;61985;51.070;14.064;2023-05-13T13:17:28;6.13;;;2.85;;
73684;SDS011;61985;51.070;14.064;2023-05-13T13:19:53;8.43;;;2.58;;
73684;SDS011;61985;51.070;14.064;2023-05-13T13:22:19;3.53;;;2.40;;
73684;SDS011;61985;51.070;14.064;2023-05-13T13:24:44;5.22;;;2.85;;
73684;SDS011;61985;51.070;14.064;2023-05-13T13:27:10;4.93;;;2.60;;
73684;SDS011;61985;51.070;14.064;2023-05-13T13:29:35;4.10;;;2.72;;
73684;SDS011;61985;51.070;14.064;2023-05-13T13:32:01;5.20;;;2.88;;
73684;SDS011;61985;51.070;14.064;2023-05-13T13:34:26;5.10;;;3.13;;
73684;SDS011;61985;51.070;14.064;2023-05-13T13:36:52;3.85;;;2.78;;
73684;SDS011;61985;51.070;14.064;2023-05-13T13:39:17;3.80;;;2.75;;
73684;SDS011;61985;51.070;14.064;2023-05-13T13:41:42;4.25;;;2.80;;
73684;SDS011;61985;51.070;14.064;2023-05-13T13:44:08;4.13;;;2.47;;
73684;SDS011;61985;51.070;14.064;2023-05-13T13:46:33;5.78;;;2.97;;
73684;SDS011;61985;51.070;14.064;2023-05-13T13:48:58;4.93;;;2.72;;
73684;SDS011;61985;51.070;14.064;2023-05-13T13:51:23;4.97;;;2.67;;
73684;SDS011;61985;51.070;14.064;2023-05-13T13:53:49;6.28;;;2.78;;
73684;SDS011;61985;51.070;14.064;2023-05-13T13:56:14;9.02;;;2.85;;
73684;SDS011;61985;51.070;14.064;2023-05-13T13:58:40;6.90;;;3.30;;
73684;SDS011;61985;51.070;14.064;2023-05-13T14:01:05;4.50;;;3.03;;
73684;SDS011;61985;51.070;14.064;2023-05-13T14:03:30;5.32;;;3.28;;
73684;SDS011;61985;51.070;14.064;2023-05-13T14:05:56;8.32;;;3.00;;
73684;SDS011;61985;51.070;14.064;2023-05-13T14:08:21;4.13;;;2.78;;
73684;SDS011;61985;51.070;14.064;2023-05-13T14:10:46;6.38;;;2.85;;
73684;SDS011;61985;51.070;14.064;2023-05-13T14:13:12;4.97;;;2.90;;
73684;SDS011;61985;51.070;14.064;2023-05-13T14:15:37;7.63;;;3.25;;
73684;SDS011;61985;51.070;14.064;2023-05-13T14:18:03;5.45;;;3.10;;
73684;SDS011;61985;51.070;14.064;2023-05-13T14:20:32;5.03;;;2.90;;
73684;SDS011;61985;51.070;14.064;2023-05-13T14:22:59;5.78;;;3.30;;
73684;SDS011;61985;51.070;14.064;2023-05-13T14:25:25;6.80;;;3.50;;
73684;SDS011;61985;51.070;14.064;2023-05-13T14:27:50;4.40;;;2.80;;
73684;SDS011;61985;51.070;14.064;2023-05-13T14:30:15;96.88;;;6.45;;
73684;SDS011;61985;51.070;14.064;2023-05-13T14:32:41;4.70;;;3.08;;
73684;SDS011;61985;51.070;14.064;2023-05-13T14:35:09;4.07;;;3.03;;
73684;SDS011;61985;51.070;14.064;2023-05-13T14:37:34;6.22;;;3.10;;
73684;SDS011;61985;51.070;14.064;2023-05-13T14:40:00;6.70;;;3.30;;
73684;SDS011;61985;51.070;14.064;2023-05-13T14:42:25;8.82;;;3.72;;
73684;SDS011;61985;51.070;14.064;2023-05-13T14:44:50;4.70;;;3.10;;
73684;SDS011;61985;51.070;14.064;2023-05-13T14:47:16;6.75;;;3.60;;
73684;SDS011;61985;51.070;14.064;2023-05-13T14:49:41;5.68;;;3.78;;
73684;SDS011;61985;51.070;14.064;2023-05-13T14:52:06;7.35;;;3.47;;
73684;SDS011;61985;51.070;14.064;2023-05-13T14:54:32;5.57;;;3.53;;
73684;SDS011;61985;51.070;14.064;2023-05-13T14:57:00;5.22;;;3.00;;
73684;SDS011;61985;51.070;14.064;2023-05-13T14:59:26;5.97;;;2.92;;
73684;SDS011;61985;51.070;14.064;2023-05-13T15:01:53;5.13;;;3.17;;
73684;SDS011;61985;51.070;14.064;2023-05-13T15:04:18;6.10;;;3.25;;
73684;SDS011;61985;51.070;14.064;2023-05-13T15:06:44;5.50;;;3.60;;
73684;SDS011;61985;51.070;14.064;2023-05-13T15:09:09;7.13;;;4.18;;
73684;SDS011;61985;51.070;14.064;2023-05-13T15:11:35;7.88;;;3.78;;
73684;SDS011;61985;51.070;14.064;2023-05-13T15:14:02;9.38;;;4.00;;
73684;SDS011;61985;51.070;14.064;2023-05-13T15:16:28;6.28;;;3.42;;
73684;SDS011;61985;51.070;14.064;2023-05-13T15:18:53;6.18;;;3.60;;
73684;SDS011;61985;51.070;14.064;2023-05-13T15:21:19;4.30;;;3.08;;
73684;SDS011;61985;51.070;14.064;2023-05-13T15:23:44;8.00;;;3.10;;
73684;SDS011;61985;51.070;14.064;2023-05-13T15:26:10;5.28;;;3.03;;
73684;SDS011;61985;51.070;14.064;2023-05-13T15:28:35;10.95;;;3.70;;
73684;SDS011;61985;51.070;14.064;2023-05-13T15:31:01;7.00;;;2.55;;
73684;SDS011;61985;51.070;14.064;2023-05-13T15:33:27;7.53;;;2.58;;
73684;SDS011;61985;51.070;14.064;2023-05-13T15:35:52;5.32;;;2.80;;
73684;SDS011;61985;51.070;14.064;2023-05-13T15:38:17;5.95;;;2.20;;
73684;SDS011;61985;51.070;14.064;2023-05-13T15:40:43;3.88;;;2.10;;
73684;SDS011;61985;51.070;14.064;2023-05-13T15:43:08;4.80;;;2.25;;
73684;SDS011;61985;51.070;14.064;2023-05-13T15:45:34;4.95;;;2.35;;
73684;SDS011;61985;51.070;14.064;2023-05-13T15:47:59;3.03;;;2.10;;
73684;SDS011;61985;51.070;14.064;2023-05-13T15:50:25;2.95;;;2.20;;
73684;SDS011;61985;51.070;14.064;2023-05-13T15:52:51;4.22;;;2.40;;
73684;SDS011;61985;51.070;14.064;2023-05-13T15:55:18;4.88;;;2.72;;
73684;SDS011;61985;51.070;14.064;2023-05-13T15:57:43;5.40;;;3.50;;
73684;SDS011;61985;51.070;14.064;2023-05-13T16:00:09;5.25;;;3.50;;
73684;SDS011;61985;51.070;14.064;2023-05-13T16:02:35;7.55;;;4.30;;
73684;SDS011;61985;51.070;14.064;2023-05-13T16:05:04;10.15;;;5.07;;
73684;SDS011;61985;51.070;14.064;2023-05-13T16:07:32;8.18;;;4.70;;
73684;SDS011;61985;51.070;14.064;2023-05-13T16:10:00;7.78;;;3.78;;
73684;SDS011;61985;51.070;14.064;2023-05-13T16:12:27;5.72;;;2.85;;
73684;SDS011;61985;51.070;14.064;2023-05-13T16:14:53;4.40;;;2.85;;
73684;SDS011;61985;51.070;14.064;2023-05-13T16:17:19;4.05;;;2.58;;
73684;SDS011;61985;51.070;14.064;2023-05-13T16:19:44;5.65;;;2.78;;
73684;SDS011;61985;51.070;14.064;2023-05-13T16:25:01;5.20;;;2.50;;
73684;SDS011;61985;51.070;14.064;2023-05-13T16:27:31;4.45;;;2.70;;
73684;SDS011;61985;51.070;14.064;2023-05-13T16:29:57;5.60;;;3.13;;
73684;SDS011;61985;51.070;14.064;2023-05-13T16:32:25;5.72;;;3.17;;
73684;SDS011;61985;51.070;14.064;2023-05-13T16:34:52;4.93;;;3.08;;
73684;SDS011;61985;51.070;14.064;2023-05-13T16:37:17;6.15;;;3.45;;
73684;SDS011;61985;51.070;14.064;2023-05-13T16:39:43;5.00;;;3.55;;
73684;SDS011;61985;51.070;14.064;2023-05-13T16:42:08;5.75;;;3.35;;
73684;SDS011;61985;51.070;14.064;2023-05-13T16:44:34;4.78;;;3.22;;
73684;SDS011;61985;51.070;14.064;2023-05-13T16:46:59;5.68;;;3.25;;
73684;SDS011;61985;51.070;14.064;2023-05-13T16:49:25;5.05;;;3.22;;
73684;SDS011;61985;51.070;14.064;2023-05-13T16:51:50;6.80;;;3.40;;
73684;SDS011;61985;51.070;14.064;2023-05-13T16:54:15;6.15;;;3.58;;
73684;SDS011;61985;51.070;14.064;2023-05-13T16:56:41;7.07;;;3.83;;
73684;SDS011;61985;51.070;14.064;2023-05-13T16:59:10;5.03;;;3.40;;
73684;SDS011;61985;51.070;14.064;2023-05-13T17:01:43;6.97;;;3.47;;
73684;SDS011;61985;51.070;14.064;2023-05-13T17:04:08;5.18;;;3.40;;
73684;SDS011;61985;51.070;14.064;2023-05-13T17:06:34;5.60;;;3.80;;
73684;SDS011;61985;51.070;14.064;2023-05-13T17:08:59;9.60;;;4.32;;
73684;SDS011;61985;51.070;14.064;2023-05-13T17:11:25;6.80;;;3.67;;
73684;SDS011;61985;51.070;14.064;2023-05-13T17:13:50;6.65;;;3.85;;
73684;SDS011;61985;51.070;14.064;2023-05-13T17:16:15;5.22;;;3.33;;
73684;SDS011;61985;51.070;14.064;2023-05-13T17:18:41;7.32;;;4.00;;
73684;SDS011;61985;51.070;14.064;2023-05-13T17:21:06;6.95;;;4.10;;
73684;SDS011;61985;51.070;14.064;2023-05-13T17:23:31;8.25;;;4.38;;
73684;SDS011;61985;51.070;14.064;2023-05-13T17:25:57;7.47;;;3.65;;
73684;SDS011;61985;51.070;14.064;2023-05-13T17:28:22;8.95;;;4.13;;
73684;SDS011;61985;51.070;14.064;2023-05-13T17:30:48;9.18;;;4.10;;
73684;SDS011;61985;51.070;14.064;2023-05-13T17:33:13;8.07;;;4.30;;
73684;SDS011;61985;51.070;14.064;2023-05-13T17:35:38;7.05;;;4.28;;
73684;SDS011;61985;51.070;14.064;2023-05-13T17:38:04;7.68;;;4.60;;
73684;SDS011;61985;51.070;14.064;2023-05-13T17:40:30;7.68;;;4.65;;
73684;SDS011;61985;51.070;14.064;2023-05-13T17:42:55;6.78;;;4.25;;
73684;SDS011;61985;51.070;14.064;2023-05-13T17:45:20;6.47;;;4.10;;
73684;SDS011;61985;51.070;14.064;2023-05-13T17:47:46;6.82;;;4.28;;
73684;SDS011;61985;51.070;14.064;2023-05-13T17:50:12;6.80;;;4.32;;
73684;SDS011;61985;51.070;14.064;2023-05-13T17:52:39;7.10;;;4.53;;
73684;SDS011;61985;51.070;14.064;2023-05-13T17:55:05;8.25;;;4.70;;
73684;SDS011;61985;51.070;14.064;2023-05-13T17:57:31;7.10;;;4.88;;
73684;SDS011;61985;51.070;14.064;2023-05-13T17:59:56;7.90;;;4.32;;
73684;SDS011;61985;51.070;14.064;2023-05-13T18:02:22;8.23;;;4.65;;
73684;SDS011;61985;51.070;14.064;2023-05-13T18:04:48;7.40;;;4.68;;
73684;SDS011;61985;51.070;14.064;2023-05-13T18:07:13;8.25;;;4.32;;
73684;SDS011;61985;51.070;14.064;2023-05-13T18:09:39;8.95;;;4.40;;
73684;SDS011;61985;51.070;14.064;2023-05-13T18:12:04;8.70;;;4.38;;
73684;SDS011;61985;51.070;14.064;2023-05-13T18:14:30;9.10;;;4.82;;
73684;SDS011;61985;51.070;14.064;2023-05-13T18:16:57;8.23;;;4.60;;
73684;SDS011;61985;51.070;14.064;2023-05-13T18:19:22;8.40;;;4.78;;
73684;SDS011;61985;51.070;14.064;2023-05-13T18:21:48;11.52;;;5.13;;
73684;SDS011;61985;51.070;14.064;2023-05-13T18:24:13;7.05;;;4.28;;
73684;SDS011;61985;51.070;14.064;2023-05-13T18:26:38;8.80;;;5.28;;
73684;SDS011;61985;51.070;14.064;2023-05-13T18:29:04;9.52;;;5.05;;
73684;SDS011;61985;51.070;14.064;2023-05-13T18:31:29;7.93;;;4.90;;
73684;SDS011;61985;51.070;14.064;2023-05-13T18:33:58;9.13;;;5.35;;
73684;SDS011;61985;51.070;14.064;2023-05-13T18:36:24;8.85;;;5.43;;
73684;SDS011;61985;51.070;14.064;2023-05-13T18:38:49;8.68;;;5.15;;
73684;SDS011;61985;51.070;14.064;2023-05-13T18:41:15;8.75;;;4.53;;
73684;SDS011;61985;51.070;14.064;2023-05-13T18:43:40;7.47;;;4.30;;
73684;SDS011;61985;51.070;14.064;2023-05-13T18:46:05;7.15;;;4.95;;
73684;SDS011;61985;51.070;14.064;2023-05-13T18:48:31;7.07;;;4.43;;
73684;SDS011;61985;51.070;14.064;2023-05-13T18:50:56;7.10;;;4.78;;
73684;SDS011;61985;51.070;14.064;2023-05-13T18:53:21;7.50;;;4.75;;
73684;SDS011;61985;51.070;14.064;2023-05-13T18:55:47;6.78;;;4.47;;
73684;SDS011;61985;51.070;14.064;2023-05-13T18:58:12;6.90;;;4.65;;
73684;SDS011;61985;51.070;14.064;2023-05-13T19:00:38;7.75;;;5.03;;
73684;SDS011;61985;51.070;14.064;2023-05-13T19:03:03;14.00;;;4.85;;
73684;SDS011;61985;51.070;14.064;2023-05-13T19:05:28;7.22;;;4.78;;
73684;SDS011;61985;51.070;14.064;2023-05-13T19:07:54;7.75;;;4.97;;
73684;SDS011;61985;51.070;14.064;2023-05-13T19:10:21;7.55;;;4.70;;
73684;SDS011;61985;51.070;14.064;2023-05-13T19:12:46;6.80;;;4.65;;
73684;SDS011;61985;51.070;14.064;2023-05-13T19:15:11;8.13;;;4.50;;
73684;SDS011;61985;51.070;14.064;2023-05-13T19:17:37;9.25;;;5.18;;
73684;SDS011;61985;51.070;14.064;2023-05-13T19:20:02;7.97;;;5.32;;
73684;SDS011;61985;51.070;14.064;2023-05-13T19:22:28;8.80;;;5.05;;
73684;SDS011;61985;51.070;14.064;2023-05-13T19:24:53;7.80;;;4.90;;
73684;SDS011;61985;51.070;14.064;2023-05-13T19:27:18;7.15;;;4.70;;
73684;SDS011;61985;51.070;14.064;2023-05-13T19:29:45;7.78;;;4.97;;
73684;SDS011;61985;51.070;14.064;2023-05-13T19:32:11;9.27;;;4.65;;
73684;SDS011;61985;51.070;14.064;2023-05-13T19:34:36;8.48;;;4.40;;
73684;SDS011;61985;51.070;14.064;2023-05-13T19:37:01;7.60;;;5.00;;
73684;SDS011;61985;51.070;14.064;2023-05-13T19:39:29;11.25;;;5.65;;
73684;SDS011;61985;51.070;14.064;2023-05-13T19:41:55;9.80;;;5.32;;
73684;SDS011;61985;51.070;14.064;2023-05-13T19:44:20;9.25;;;5.28;;
73684;SDS011;61985;51.070;14.064;2023-05-13T19:46:45;8.65;;;4.82;;
73684;SDS011;61985;51.070;14.064;2023-05-13T19:49:11;8.00;;;4.78;;
73684;SDS011;61985;51.070;14.064;2023-05-13T19:51:36;8.50;;;4.65;;
73684;SDS011;61985;51.070;14.064;2023-05-13T19:54:02;7.78;;;4.57;;
73684;SDS011;61985;51.070;14.064;2023-05-13T19:56:27;7.93;;;5.05;;
73684;SDS011;61985;51.070;14.064;2023-05-13T19:58:52;8.02;;;4.35;;
73684;SDS011;61985;51.070;14.064;2023-05-13T20:01:18;7.18;;;4.80;;
73684;SDS011;61985;51.070;14.064;2023-05-13T20:03:43;7.53;;;4.82;;
73684;SDS011;61985;51.070;14.064;2023-05-13T20:06:09;10.27;;;4.80;;
73684;SDS011;61985;51.070;14.064;2023-05-13T20:08:35;9.05;;;5.28;;
73684;SDS011;61985;51.070;14.064;2023-05-13T20:11:00;8.07;;;4.93;;
73684;SDS011;61985;51.070;14.064;2023-05-13T20:13:25;8.55;;;5.28;;
73684;SDS011;61985;51.070;14.064;2023-05-13T20:15:51;7.05;;;4.57;;
73684;SDS011;61985;51.070;14.064;2023-05-13T20:18:16;8.00;;;4.88;;
73684;SDS011;61985;51.070;14.064;2023-05-13T20:20:42;7.45;;;4.43;;
73684;SDS011;61985;51.070;14.064;2023-05-13T20:23:07;7.30;;;4.68;;
73684;SDS011;61985;51.070;14.064;2023-05-13T20:25:32;8.00;;;4.82;;
73684;SDS011;61985;51.070;14.064;2023-05-13T20:27:58;8.55;;;5.25;;
73684;SDS011;61985;51.070;14.064;2023-05-13T20:30:23;10.27;;;4.95;;
73684;SDS011;61985;51.070;14.064;2023-05-13T20:32:49;7.07;;;5.05;;
73684;SDS011;61985;51.070;14.064;2023-05-13T20:35:14;8.15;;;5.20;;
73684;SDS011;61985;51.070;14.064;2023-05-13T20:37:46;8.40;;;5.55;;
73684;SDS011;61985;51.070;14.064;2023-05-13T20:40:11;8.73;;;5.07;;
73684;SDS011;61985;51.070;14.064;2023-05-13T20:42:37;7.50;;;5.22;;
73684;SDS011;61985;51.070;14.064;2023-05-13T20:45:02;7.95;;;5.28;;
73684;SDS011;61985;51.070;14.064;2023-05-13T20:47:28;8.10;;;4.88;;
73684;SDS011;61985;51.070;14.064;2023-05-13T20:49:54;8.13;;;5.47;;
73684;SDS011;61985;51.070;14.064;2023-05-13T20:52:19;8.75;;;5.93;;
73684;SDS011;61985;51.070;14.064;2023-05-13T20:54:46;8.50;;;5.25;;
73684;SDS011;61985;51.070;14.064;2023-05-13T20:57:12;12.10;;;5.57;;
73684;SDS011;61985;51.070;14.064;2023-05-13T20:59:37;10.38;;;5.85;;
73684;SDS011;61985;51.070;14.064;2023-05-13T21:02:03;9.25;;;5.85;;
73684;SDS011;61985;51.070;14.064;2023-05-13T21:04:28;11.00;;;6.15;;
73684;SDS011;61985;51.070;14.064;2023-05-13T21:06:53;10.00;;;6.05;;
73684;SDS011;61985;51.070;14.064;2023-05-13T21:09:19;10.18;;;5.93;;
73684;SDS011;61985;51.070;14.064;2023-05-13T21:11:44;8.98;;;6.18;;
73684;SDS011;61985;51.070;14.064;2023-05-13T21:14:09;8.75;;;5.65;;
73684;SDS011;61985;51.070;14.064;2023-05-13T21:16:35;10.38;;;6.13;;
73684;SDS011;61985;51.070;14.064;2023-05-13T21:19:00;11.25;;;6.60;;
73684;SDS011;61985;51.070;14.064;2023-05-13T21:21:26;10.32;;;6.38;;
73684;SDS011;61985;51.070;14.064;2023-05-13T21:23:51;12.82;;;6.57;;
73684;SDS011;61985;51.070;14.064;2023-05-13T21:26:16;9.75;;;6.20;;
73684;SDS011;61985;51.070;14.064;2023-05-13T21:28:42;11.38;;;6.63;;
73684;SDS011;61985;51.070;14.064;2023-05-13T21:31:07;10.40;;;6.25;;
73684;SDS011;61985;51.070;14.064;2023-05-13T21:33:32;9.48;;;6.20;;
73684;SDS011;61985;51.070;14.064;2023-05-13T21:35:58;8.88;;;6.40;;
73684;SDS011;61985;51.070;14.064;2023-05-13T21:38:23;11.43;;;6.32;;
73684;SDS011;61985;51.070;14.064;2023-05-13T21:40:48;11.25;;;7.20;;
73684;SDS011;61985;51.070;14.064;2023-05-13T21:43:14;11.10;;;6.53;;
73684;SDS011;61985;51.070;14.064;2023-05-13T21:45:39;13.45;;;7.53;;
73684;SDS011;61985;51.070;14.064;2023-05-13T21:48:05;8.88;;;6.40;;
73684;SDS011;61985;51.070;14.064;2023-05-13T21:50:31;9.77;;;6.88;;
73684;SDS011;61985;51.070;14.064;2023-05-13T21:52:56;9.52;;;6.45;;
73684;SDS011;61985;51.070;14.064;2023-05-13T21:55:22;10.48;;;6.90;;
73684;SDS011;61985;51.070;14.064;2023-05-13T21:57:48;11.73;;;6.78;;
73684;SDS011;61985;51.070;14.064;2023-05-13T22:00:13;10.82;;;7.28;;
73684;SDS011;61985;51.070;14.064;2023-05-13T22:02:43;8.82;;;6.30;;
73684;SDS011;61985;51.070;14.064;2023-05-13T22:05:09;12.75;;;7.75;;
73684;SDS011;61985;51.070;14.064;2023-05-13T22:07:34;10.07;;;7.13;;
73684;SDS011;61985;51.070;14.064;2023-05-13T22:10:00;10.80;;;7.43;;
73684;SDS011;61985;51.070;14.064;2023-05-13T22:12:25;10.07;;;6.75;;
73684;SDS011;61985;51.070;14.064;2023-05-13T22:14:51;9.98;;;6.72;;
73684;SDS011;61985;51.070;14.064;2023-05-13T22:17:17;11.40;;;7.47;;
73684;SDS011;61985;51.070;14.064;2023-05-13T22:19:42;11.63;;;7.70;;
73684;SDS011;61985;51.070;14.064;2023-05-13T22:22:07;11.35;;;6.95;;
73684;SDS011;61985;51.070;14.064;2023-05-13T22:24:33;14.77;;;7.70;;
73684;SDS011;61985;51.070;14.064;2023-05-13T22:26:58;10.05;;;7.57;;
73684;SDS011;61985;51.070;14.064;2023-05-13T22:29:24;12.02;;;7.78;;
73684;SDS011;61985;51.070;14.064;2023-05-13T22:31:49;10.10;;;6.95;;
73684;SDS011;61985;51.070;14.064;2023-05-13T22:34:16;18.27;;;8.00;;
73684;SDS011;61985;51.070;14.064;2023-05-13T22:36:41;10.88;;;7.38;;
73684;SDS011;61985;51.070;14.064;2023-05-13T22:39:07;11.48;;;7.88;;
73684;SDS011;61985;51.070;14.064;2023-05-13T22:41:32;12.23;;;7.70;;
73684;SDS011;61985;51.070;14.064;2023-05-13T22:43:57;13.27;;;7.35;;
73684;SDS011;61985;51.070;14.064;2023-05-13T22:46:23;11.50;;;7.20;;
73684;SDS011;61985;51.070;14.064;2023-05-13T22:48:48;10.43;;;6.97;;
73684;SDS011;61985;51.070;14.064;2023-05-13T22:51:14;11.38;;;7.32;;
73684;SDS011;61985;51.070;14.064;2023-05-13T22:53:39;12.85;;;8.05;;
73684;SDS011;61985;51.070;14.064;2023-05-13T22:56:04;11.82;;;7.53;;
73684;SDS011;61985;51.070;14.064;2023-05-13T22:58:31;12.70;;;7.72;;
73684;SDS011;61985;51.070;14.064;2023-05-13T23:00:56;13.02;;;7.07;;
73684;SDS011;61985;51.070;14.064;2023-05-13T23:03:22;11.30;;;7.55;;
73684;SDS011;61985;51.070;14.064;2023-05-13T23:05:47;9.73;;;6.60;;
73684;SDS011;61985;51.070;14.064;2023-05-13T23:08:12;10.07;;;6.60;;
73684;SDS011;61985;51.070;14.064;2023-05-13T23:10:38;10.77;;;6.93;;
73684;SDS011;61985;51.070;14.064;2023-05-13T23:13:03;9.50;;;6.68;;
73684;SDS011;61985;51.070;14.064;2023-05-13T23:15:30;9.50;;;6.80;;
73684;SDS011;61985;51.070;14.064;2023-05-13T23:18:00;11.52;;;7.72;;
73684;SDS011;61985;51.070;14.064;2023-05-13T23:20:25;9.23;;;6.55;;
73684;SDS011;61985;51.070;14.064;2023-05-13T23:22:50;11.38;;;6.88;;
73684;SDS011;61985;51.070;14.064;2023-05-13T23:25:16;10.10;;;6.90;;
73684;SDS011;61985;51.070;14.064;2023-05-13T23:27:41;11.18;;;7.30;;
73684;SDS011;61985;51.070;14.064;2023-05-13T23:30:07;10.77;;;6.72;;
73684;SDS011;61985;51.070;14.064;2023-05-13T23:32:32;11.45;;;6.57;;
73684;SDS011;61985;51.070;14.064;2023-05-13T23:34:58;10.40;;;7.20;;
73684;SDS011;61985;51.070;14.064;2023-05-13T23:37:23;11.82;;;7.18;;
73684;SDS011;61985;51.070;14.064;2023-05-13T23:39:49;10.65;;;6.40;;
73684;SDS011;61985;51.070;14.064;2023-05-13T23:42:14;10.18;;;7.32;;
73684;SDS011;61985;51.070;14.064;2023-05-13T23:44:40;14.05;;;7.15;;
73684;SDS011;61985;51.070;14.064;2023-05-13T23:47:05;11.27;;;7.40;;
73684;SDS011;61985;51.070;14.064;2023-05-13T23:49:31;10.15;;;7.20;;
73684;SDS011;61985;51.070;14.064;2023-05-13T23:51:56;10.95;;;6.88;;
73684;SDS011;61985;51.070;14.064;2023-05-13T23:54:21;11.43;;;6.70;;